Terminal Aerodrome Forecast
Issued by NWS

Home | Current Version | Previous Version | Text Only | Print | Product List | Glossary On
Versions: 1 2 3 4 5 6 7 8 9 10 11 12 13 14 15
000
FTUS46 KHNX 182320
TAFVIS
TAF
KVIS 182320Z 1900/1924 VRB03KT P6SM SKC
     FM190900 VRB02KT 1SM BR SKC
      TEMPO 1910/1913 1/4SM FG VV002
     FM191400 00000KT 1/4SM FG VV002
     FM191700 VRB02KT 3SM HZ SKC=

USA.gov is the U.S. government's official web portal to all federal, state and local government web resources and services.